M. Luther — WDC7372 — position and weather

sailwx.info

Track history (hours):
 
Tides and Currents Weather Stations Pressure Air Temp Water Temp Dewpoint Dewpoint Depression Visibility Wind Speed Wind Dir Waves Ship Positions

M. Luther

Owner: Salmon Bay Barge Line, Inc., Seattle, WA. More information available from US FCC via Universal Licensing System and Coast Guard Vessel Documentation Center.

Last reported at 2015-Jun-27 14:18 UTC. Time now 2015-Jul-01 01:50 UTC.
Position N 47°35' W 122°22'.

Length 28 m; draft 4.1 m.

Type: Tow > 200 m length. MMSI: 367070410.

Date/timePositionNaut miles runAvg speedWind from/ knotsBaromVisibWave heightAir tempDewpointWater temp
2015-Jun-27 14:18N 47°35' W 122°22'2 3.2
2015-Jun-27 13:33N 47°37' W 122°24'4 3.8
2015-Jun-27 12:33N 47°39' W 122°28'3 3.2
2015-Jun-27 11:32N 47°42' W 122°28'3 3.0
2015-Jun-27 10:33N 47°45' W 122°27'4 3.8
2015-Jun-27 09:33N 47°49' W 122°28'4 3.7
2015-Jun-27 08:33N 47°53' W 122°30'4 3.5
2015-Jun-27 07:33N 47°56' W 122°32'4 4.1
2015-Jun-27 06:33N 47°59' W 122°36'7 6.2
2015-Jun-27 05:30N 48°05' W 122°40'7 7.1
2015-Jun-27 04:27N 48°11' W 122°45'7 6.6
2015-Jun-27 03:21N 48°18' W 122°48'6 6.8
2015-Jun-27 02:30N 48°24' W 122°45'7 7.3
2015-Jun-27 01:33N 48°31' W 122°45'7 7.3
2015-Jun-27 00:33N 48°38' W 122°44'7 7.0
2015-Jun-26 23:33N 48°45' W 122°47'7 7.3
2015-Jun-26 22:33N 48°49' W 122°57'7 7.1
2015-Jun-26 21:33N 48°53' W 123°05'7 7.3
2015-Jun-26 20:34N 48°58' W 123°14'7 7.0
2015-Jun-26 19:34N 49°03' W 123°21'6 6.1
2015-Jun-26 18:33N 49°08' W 123°15'6 6.5
2015-Jun-26 17:34N 49°07' W 123°05'4 3.5
2015-Jun-26 16:33N 49°09' W 123°00'0 0.0
2015-Jun-26 15:33N 49°09' W 123°00'0 0.0
2015-Jun-26 14:33N 49°09' W 123°00'0 0.0
2015-Jun-26 13:33N 49°09' W 123°00'0 0.0
2015-Jun-26 12:33N 49°09' W 123°00'0 0.0
2015-Jun-26 11:34N 49°09' W 123°00'0 0.0
2015-Jun-26 10:33N 49°09' W 123°00'0 0.0
2015-Jun-26 09:33N 49°09' W 123°00'0 0.0
2015-Jun-26 08:33N 49°09' W 123°00'0 0.0
2015-Jun-26 07:33N 49°09' W 123°00'0 0.0
2015-Jun-26 06:33N 49°09' W 123°00'0 0.0
2015-Jun-26 05:33N 49°09' W 123°00'0 0.0
2015-Jun-26 04:33N 49°09' W 123°00'0 0.0
2015-Jun-26 03:33N 49°09' W 123°00'0 0.0
2015-Jun-26 02:33N 49°09' W 123°00'0 0.0
2015-Jun-26 01:33N 49°09' W 123°00'0 0.0
2015-Jun-26 00:33N 49°09' W 123°00'0 0.0
2015-Jun-25 23:33N 49°09' W 123°00'0 0.0
2015-Jun-25 22:34N 49°09' W 123°00'0 0.0
2015-Jun-25 21:33N 49°09' W 123°00'0 0.0
2015-Jun-25 20:33N 49°09' W 123°00'0 0.0
2015-Jun-25 19:33N 49°09' W 123°00'0 0.0
2015-Jun-25 18:33N 49°09' W 123°00'0 0.0
2015-Jun-25 17:33N 49°09' W 123°00'0 0.0
2015-Jun-25 16:33N 49°09' W 123°00'0 0.0
2015-Jun-25 15:33N 49°09' W 123°00'0 0.0
2015-Jun-25 14:33N 49°09' W 123°00'0 0.0
2015-Jun-25 13:33N 49°09' W 123°00'0 0.0
2015-Jun-25 12:33N 49°09' W 123°00'0 0.0
2015-Jun-25 11:33N 49°09' W 123°00'0 0.0
2015-Jun-25 10:33N 49°09' W 123°00'0 0.0
2015-Jun-25 09:33N 49°09' W 123°00'0 0.0
2015-Jun-25 08:33N 49°09' W 123°00'0 0.0
2015-Jun-25 07:33N 49°09' W 123°00'0 0.0
2015-Jun-25 06:33N 49°09' W 123°00'0 0.0
2015-Jun-25 05:33N 49°09' W 123°00'0 0.0
2015-Jun-25 04:33N 49°09' W 123°00'0 0.0
2015-Jun-25 03:33N 49°09' W 123°00'0 0.0
2015-Jun-25 02:33N 49°09' W 123°00'0 0.0
2015-Jun-25 01:33N 49°09' W 123°00'0 0.0
2015-Jun-25 00:33N 49°09' W 123°00'0 0.0
2015-Jun-24 23:33N 49°09' W 123°00'0 0.0
2015-Jun-24 22:33N 49°09' W 123°00'0 0.0
2015-Jun-24 21:33N 49°09' W 123°00'0 0.0
2015-Jun-24 20:33N 49°09' W 123°00'0 0.0
2015-Jun-24 19:33N 49°09' W 123°00'0 0.0
2015-Jun-24 18:33N 49°09' W 123°00'0 0.0
2015-Jun-24 17:33N 49°09' W 123°00'0 0.0
2015-Jun-24 16:33N 49°09' W 123°00'0 0.0
2015-Jun-24 15:33N 49°09' W 123°00'0 0.0
2015-Jun-24 14:33N 49°09' W 123°00'0 0.0
2015-Jun-24 13:33N 49°09' W 123°00'1 1.0
2015-Jun-24 12:33N 49°09' W 123°02'4 4.5
2015-Jun-24 11:33N 49°06' W 123°07'4 4.4
2015-Jun-24 10:33N 49°08' W 123°14'5 5.0
2015-Jun-24 09:33N 49°04' W 123°20'5 5.3
2015-Jun-24 08:33N 49°01' W 123°14'6 5.9
2015-Jun-24 07:33N 48°57' W 123°07'5 5.3
2015-Jun-24 06:33N 48°54' W 123°01'3 3.2
2015-Jun-24 05:33N 48°51' W 122°57'6 5.9
2015-Jun-24 04:33N 48°47' W 122°51'4 6.0
2015-Jun-24 03:52N 48°45' W 122°45'2 6.8
2015-Jun-24 03:33N 48°43' W 122°44'6 5.7
2015-Jun-24 02:33N 48°37' W 122°44'4 6.2
2015-Jun-24 01:57N 48°34' W 122°45'2 6.3
2015-Jun-24 01:33N 48°31' W 122°45'7 6.9
2015-Jun-24 00:33N 48°24' W 122°44'4 6.4
2015-Jun-23 23:56N 48°21' W 122°45'3 7.4
2015-Jun-23 23:29N 48°17' W 122°46'20 8.7
2015-Jun-23 21:10N 47°59' W 122°35'0 0.0
2015-Jun-23 21:10N 47°59' W 122°35'6 9.3
2015-Jun-23 20:33N 47°55' W 122°29'1 9.4
2015-Jun-23 20:29N 47°54' W 122°28'8 8.9
2015-Jun-23 19:33N 47°46' W 122°26'0 8.7
2015-Jun-23 19:30N 47°46' W 122°26'4 8.8
2015-Jun-23 19:05N 47°42' W 122°26'0 8.2
2015-Jun-23 19:05N 47°42' W 122°26'  
2015-Jun-18 18:00N 47°33' W 122°21'1 1.2
2015-Jun-18 17:32N 47°34' W 122°21'0 3.8
2015-Jun-18 17:30N 47°34' W 122°21'3 3.7
2015-Jun-18 16:33N 47°37' W 122°24'0 6.7
2015-Jun-18 16:30N 47°37' W 122°25'5 5.2
2015-Jun-18 15:33N 47°41' W 122°28'0 5.0
2015-Jun-18 15:30N 47°42' W 122°28'5 5.5
2015-Jun-18 14:33N 47°47' W 122°27'0 6.3
2015-Jun-18 14:29N 47°47' W 122°28'5 5.9
2015-Jun-18 13:33N 47°52' W 122°30'1 6.1
2015-Jun-18 13:19N 47°54' W 122°30'6 7.8
2015-Jun-18 12:33N 47°58' W 122°36'10 8.0
2015-Jun-18 11:16N 48°08' W 122°42'7 9.2
2015-Jun-18 10:32N 48°13' W 122°48'5 7.5
2015-Jun-18 09:53N 48°18' W 122°47'3 7.2
2015-Jun-18 09:30N 48°21' W 122°47'7 7.2
2015-Jun-18 08:33N 48°27' W 122°45'4 8.5
2015-Jun-18 08:06N 48°31' W 122°45'5 8.6
2015-Jun-18 07:33N 48°36' W 122°46'8 7.8
2015-Jun-18 06:33N 48°44' W 122°46'8 7.6
2015-Jun-18 05:33N 48°48' W 122°56'8 7.7
2015-Jun-18 04:33N 48°53' W 123°05'7 7.3
2015-Jun-18 03:33N 48°57' W 123°13'7 6.9
2015-Jun-18 02:33N 49°03' W 123°20'5 5.2
2015-Jun-18 01:33N 49°07' W 123°16'6 6.0
2015-Jun-18 00:33N 49°07' W 123°07'5 5.2
2015-Jun-17 23:33N 49°09' W 123°00'0 0.0
2015-Jun-17 22:33N 49°09' W 123°00'0 0.0
2015-Jun-17 21:33N 49°09' W 123°00'0 0.0
2015-Jun-17 20:33N 49°09' W 123°00'0 0.0
2015-Jun-17 19:33N 49°09' W 123°00'0 0.0
2015-Jun-17 18:33N 49°09' W 123°00'0 0.0
2015-Jun-17 17:33N 49°09' W 123°00'0 0.0
2015-Jun-17 16:33N 49°09' W 123°00'0 0.0
2015-Jun-17 15:33N 49°09' W 123°00'0 0.0
2015-Jun-17 14:33N 49°09' W 123°00'  
Track history (hours):
 
Tides and Currents Weather Stations Pressure Air Temp Water Temp Dewpoint Dewpoint Depression Visibility Wind Speed Wind Dir Waves Ship Positions

M. Luther

Owner: Salmon Bay Barge Line, Inc., Seattle, WA. More information available from US FCC via Universal Licensing System and Coast Guard Vessel Documentation Center.

Last reported at 2015-Jun-27 14:18 UTC. Time now 2015-Jul-01 01:50 UTC.
Position N 47°35' W 122°22'.

Length 28 m; draft 4.1 m.

Type: Tow > 200 m length. MMSI: 367070410.

Date/timePositionNaut miles runAvg speedWind from/ knotsBaromVisibWave heightAir tempDewpointWater temp
2015-Jun-27 14:18N 47°35' W 122°22'2 3.2
2015-Jun-27 13:33N 47°37' W 122°24'4 3.8
2015-Jun-27 12:33N 47°39' W 122°28'3 3.2
2015-Jun-27 11:32N 47°42' W 122°28'3 3.0
2015-Jun-27 10:33N 47°45' W 122°27'4 3.8
2015-Jun-27 09:33N 47°49' W 122°28'4 3.7
2015-Jun-27 08:33N 47°53' W 122°30'4 3.5
2015-Jun-27 07:33N 47°56' W 122°32'4 4.1
2015-Jun-27 06:33N 47°59' W 122°36'7 6.2
2015-Jun-27 05:30N 48°05' W 122°40'7 7.1
2015-Jun-27 04:27N 48°11' W 122°45'7 6.6
2015-Jun-27 03:21N 48°18' W 122°48'6 6.8
2015-Jun-27 02:30N 48°24' W 122°45'7 7.3
2015-Jun-27 01:33N 48°31' W 122°45'7 7.3
2015-Jun-27 00:33N 48°38' W 122°44'7 7.0
2015-Jun-26 23:33N 48°45' W 122°47'7 7.3
2015-Jun-26 22:33N 48°49' W 122°57'7 7.1
2015-Jun-26 21:33N 48°53' W 123°05'7 7.3
2015-Jun-26 20:34N 48°58' W 123°14'7 7.0
2015-Jun-26 19:34N 49°03' W 123°21'6 6.1
2015-Jun-26 18:33N 49°08' W 123°15'6 6.5
2015-Jun-26 17:34N 49°07' W 123°05'4 3.5
2015-Jun-26 16:33N 49°09' W 123°00'0 0.0
2015-Jun-26 15:33N 49°09' W 123°00'0 0.0
2015-Jun-26 14:33N 49°09' W 123°00'0 0.0
2015-Jun-26 13:33N 49°09' W 123°00'0 0.0
2015-Jun-26 12:33N 49°09' W 123°00'0 0.0
2015-Jun-26 11:34N 49°09' W 123°00'0 0.0
2015-Jun-26 10:33N 49°09' W 123°00'0 0.0
2015-Jun-26 09:33N 49°09' W 123°00'0 0.0
2015-Jun-26 08:33N 49°09' W 123°00'0 0.0
2015-Jun-26 07:33N 49°09' W 123°00'0 0.0
2015-Jun-26 06:33N 49°09' W 123°00'0 0.0
2015-Jun-26 05:33N 49°09' W 123°00'0 0.0
2015-Jun-26 04:33N 49°09' W 123°00'0 0.0
2015-Jun-26 03:33N 49°09' W 123°00'0 0.0
2015-Jun-26 02:33N 49°09' W 123°00'0 0.0
2015-Jun-26 01:33N 49°09' W 123°00'0 0.0
2015-Jun-26 00:33N 49°09' W 123°00'0 0.0
2015-Jun-25 23:33N 49°09' W 123°00'0 0.0
2015-Jun-25 22:34N 49°09' W 123°00'0 0.0
2015-Jun-25 21:33N 49°09' W 123°00'0 0.0
2015-Jun-25 20:33N 49°09' W 123°00'0 0.0
2015-Jun-25 19:33N 49°09' W 123°00'0 0.0
2015-Jun-25 18:33N 49°09' W 123°00'0 0.0
2015-Jun-25 17:33N 49°09' W 123°00'0 0.0
2015-Jun-25 16:33N 49°09' W 123°00'0 0.0
2015-Jun-25 15:33N 49°09' W 123°00'0 0.0
2015-Jun-25 14:33N 49°09' W 123°00'0 0.0
2015-Jun-25 13:33N 49°09' W 123°00'0 0.0
2015-Jun-25 12:33N 49°09' W 123°00'0 0.0
2015-Jun-25 11:33N 49°09' W 123°00'0 0.0
2015-Jun-25 10:33N 49°09' W 123°00'0 0.0
2015-Jun-25 09:33N 49°09' W 123°00'0 0.0
2015-Jun-25 08:33N 49°09' W 123°00'0 0.0
2015-Jun-25 07:33N 49°09' W 123°00'0 0.0
2015-Jun-25 06:33N 49°09' W 123°00'0 0.0
2015-Jun-25 05:33N 49°09' W 123°00'0 0.0
2015-Jun-25 04:33N 49°09' W 123°00'0 0.0
2015-Jun-25 03:33N 49°09' W 123°00'0 0.0
2015-Jun-25 02:33N 49°09' W 123°00'0 0.0
2015-Jun-25 01:33N 49°09' W 123°00'0 0.0
2015-Jun-25 00:33N 49°09' W 123°00'0 0.0
2015-Jun-24 23:33N 49°09' W 123°00'0 0.0
2015-Jun-24 22:33N 49°09' W 123°00'0 0.0
2015-Jun-24 21:33N 49°09' W 123°00'0 0.0
2015-Jun-24 20:33N 49°09' W 123°00'0 0.0
2015-Jun-24 19:33N 49°09' W 123°00'0 0.0
2015-Jun-24 18:33N 49°09' W 123°00'0 0.0
2015-Jun-24 17:33N 49°09' W 123°00'0 0.0
2015-Jun-24 16:33N 49°09' W 123°00'0 0.0
2015-Jun-24 15:33N 49°09' W 123°00'0 0.0
2015-Jun-24 14:33N 49°09' W 123°00'0 0.0
2015-Jun-24 13:33N 49°09' W 123°00'1 1.0
2015-Jun-24 12:33N 49°09' W 123°02'4 4.5
2015-Jun-24 11:33N 49°06' W 123°07'4 4.4
2015-Jun-24 10:33N 49°08' W 123°14'5 5.0
2015-Jun-24 09:33N 49°04' W 123°20'5 5.3
2015-Jun-24 08:33N 49°01' W 123°14'6 5.9
2015-Jun-24 07:33N 48°57' W 123°07'5 5.3
2015-Jun-24 06:33N 48°54' W 123°01'3 3.2
2015-Jun-24 05:33N 48°51' W 122°57'6 5.9
2015-Jun-24 04:33N 48°47' W 122°51'4 6.0
2015-Jun-24 03:52N 48°45' W 122°45'2 6.8
2015-Jun-24 03:33N 48°43' W 122°44'6 5.7
2015-Jun-24 02:33N 48°37' W 122°44'4 6.2
2015-Jun-24 01:57N 48°34' W 122°45'2 6.3
2015-Jun-24 01:33N 48°31' W 122°45'7 6.9
2015-Jun-24 00:33N 48°24' W 122°44'4 6.4
2015-Jun-23 23:56N 48°21' W 122°45'3 7.4
2015-Jun-23 23:29N 48°17' W 122°46'20 8.7
2015-Jun-23 21:10N 47°59' W 122°35'0 0.0
2015-Jun-23 21:10N 47°59' W 122°35'6 9.3
2015-Jun-23 20:33N 47°55' W 122°29'1 9.4
2015-Jun-23 20:29N 47°54' W 122°28'8 8.9
2015-Jun-23 19:33N 47°46' W 122°26'0 8.7
2015-Jun-23 19:30N 47°46' W 122°26'4 8.8
2015-Jun-23 19:05N 47°42' W 122°26'0 8.2
2015-Jun-23 19:05N 47°42' W 122°26'  
2015-Jun-18 18:00N 47°33' W 122°21'1 1.2
2015-Jun-18 17:32N 47°34' W 122°21'0 3.8
2015-Jun-18 17:30N 47°34' W 122°21'3 3.7
2015-Jun-18 16:33N 47°37' W 122°24'0 6.7
2015-Jun-18 16:30N 47°37' W 122°25'5 5.2
2015-Jun-18 15:33N 47°41' W 122°28'0 5.0
2015-Jun-18 15:30N 47°42' W 122°28'5 5.5
2015-Jun-18 14:33N 47°47' W 122°27'0 6.3
2015-Jun-18 14:29N 47°47' W 122°28'5 5.9
2015-Jun-18 13:33N 47°52' W 122°30'1 6.1
2015-Jun-18 13:19N 47°54' W 122°30'6 7.8
2015-Jun-18 12:33N 47°58' W 122°36'10 8.0
2015-Jun-18 11:16N 48°08' W 122°42'7 9.2
2015-Jun-18 10:32N 48°13' W 122°48'5 7.5
2015-Jun-18 09:53N 48°18' W 122°47'3 7.2
2015-Jun-18 09:30N 48°21' W 122°47'7 7.2
2015-Jun-18 08:33N 48°27' W 122°45'4 8.5
2015-Jun-18 08:06N 48°31' W 122°45'5 8.6
2015-Jun-18 07:33N 48°36' W 122°46'8 7.8
2015-Jun-18 06:33N 48°44' W 122°46'8 7.6
2015-Jun-18 05:33N 48°48' W 122°56'8 7.7
2015-Jun-18 04:33N 48°53' W 123°05'7 7.3
2015-Jun-18 03:33N 48°57' W 123°13'7 6.9
2015-Jun-18 02:33N 49°03' W 123°20'5 5.2
2015-Jun-18 01:33N 49°07' W 123°16'6 6.0
2015-Jun-18 00:33N 49°07' W 123°07'5 5.2
2015-Jun-17 23:33N 49°09' W 123°00'0 0.0
2015-Jun-17 22:33N 49°09' W 123°00'0 0.0
2015-Jun-17 21:33N 49°09' W 123°00'0 0.0
2015-Jun-17 20:33N 49°09' W 123°00'0 0.0
2015-Jun-17 19:33N 49°09' W 123°00'0 0.0
2015-Jun-17 18:33N 49°09' W 123°00'0 0.0
2015-Jun-17 17:33N 49°09' W 123°00'0 0.0
2015-Jun-17 16:33N 49°09' W 123°00'0 0.0
2015-Jun-17 15:33N 49°09' W 123°00'0 0.0
2015-Jun-17 14:33N 49°09' W 123°00'  

Dump ship's entire track history